Time;durP1;ratioP1;P1;durP2;ratioP2;P2;SDS_P1;SDS_P2;PMS_P1;PMS_P2;Temp;Humidity;BMP_temperature;BMP_pressure;BME280_temperature;BME280_humidity;BME280_pressure;Samples;Min_cycle;Max_cycle;Signal;HPM_P1;HPM_P2
2023/01/30 00:01:32;;;;;;;7.07;4.80;;;0.00;99.90;-0.10;100531.00;;;;4781578;29;121693;-69
2023/01/30 00:03:58;;;;;;;7.27;5.07;;;0.30;99.90;-0.20;100534.00;;;;4778414;29;92735;-69
2023/01/30 00:06:25;;;;;;;5.27;3.93;;;0.30;99.90;-0.10;100525.00;;;;4776208;29;109953;-67
2023/01/30 00:08:51;;;;;;;8.30;4.73;;;0.20;99.90;-0.10;100518.00;;;;4779893;29;94123;-68
2023/01/30 00:11:18;;;;;;;8.60;4.53;;;0.20;99.90;-0.10;100507.00;;;;4779883;29;116786;-68
2023/01/30 00:13:46;;;;;;;8.07;5.03;;;0.20;99.90;-0.10;100493.00;;;;4780532;29;93770;-67
2023/01/30 00:16:12;;;;;;;8.87;4.43;;;0.20;99.90;-0.10;100490.00;;;;4781149;29;92794;-69
2023/01/30 00:18:39;;;;;;;5.90;4.00;;;0.20;99.90;-0.10;100478.00;;;;4779825;29;107287;-67
2023/01/30 00:21:09;;;;;;;8.33;5.03;;;0.10;99.90;-0.10;100483.00;;;;4779291;29;93157;-67
2023/01/30 00:23:36;;;;;;;10.37;5.07;;;0.20;99.90;-0.10;100481.00;;;;4781357;29;100767;-69
2023/01/30 00:26:02;;;;;;;6.43;4.80;;;0.10;99.90;-0.10;100467.00;;;;4782676;29;93087;-67
2023/01/30 00:28:29;;;;;;;8.70;5.93;;;0.20;99.90;-0.10;100478.00;;;;4785588;29;94224;-68
2023/01/30 00:30:56;;;;;;;7.10;4.03;;;0.30;99.90;-0.10;100472.00;;;;4778288;29;119121;-69
2023/01/30 00:33:24;;;;;;;7.33;4.50;;;0.20;99.90;-0.10;100473.00;;;;4779947;29;93013;-67
2023/01/30 00:35:52;;;;;;;8.97;4.73;;;0.30;99.90;0.00;100458.00;;;;4782741;29;92815;-69
2023/01/30 00:38:18;;;;;;;6.57;4.93;;;0.20;99.90;-0.10;100441.00;;;;4777287;29;117413;-68
2023/01/30 00:40:45;;;;;;;9.67;4.53;;;0.30;99.90;0.00;100447.00;;;;4781573;29;110109;-69
2023/01/30 00:48:44;;;;;;;8.03;4.53;;;0.20;99.90;0.00;100450.00;;;;4790539;29;93274;-68
2023/01/30 00:51:10;;;;;;;12.17;5.67;;;0.20;99.90;0.00;100452.00;;;;4780815;29;121574;-68
2023/01/30 00:53:35;;;;;;;9.50;6.20;;;0.30;99.90;0.00;100464.00;;;;4780749;29;108592;-68
2023/01/30 00:56:01;;;;;;;8.07;4.13;;;0.30;99.90;0.00;100459.00;;;;4778297;29;92145;-68
2023/01/30 00:58:27;;;;;;;3.83;3.33;;;0.60;99.90;0.00;100440.00;;;;4778815;29;118581;-69
2023/01/30 01:00:53;;;;;;;10.37;4.97;;;0.30;99.90;0.00;100432.00;;;;4780816;29;103437;-69
2023/01/30 01:03:19;;;;;;;7.17;4.67;;;0.30;99.90;0.00;100437.00;;;;4779497;29;109309;-67
2023/01/30 01:05:45;;;;;;;7.00;4.13;;;0.30;99.90;0.00;100418.00;;;;4782821;29;110131;-68
2023/01/30 01:08:11;;;;;;;7.93;4.53;;;0.30;99.90;0.00;100417.00;;;;4779570;29;121981;-67
2023/01/30 01:10:37;;;;;;;4.77;3.90;;;0.30;99.90;0.00;100394.00;;;;4777554;29;123352;-68
2023/01/30 01:13:03;;;;;;;4.37;3.67;;;0.40;99.90;0.00;100399.00;;;;4780676;29;109418;-68
2023/01/30 01:15:29;;;;;;;6.17;4.20;;;0.40;99.90;0.00;100393.00;;;;4783482;29;92904;-68
2023/01/30 01:17:55;;;;;;;7.40;4.73;;;0.40;99.90;0.00;100376.00;;;;4781582;29;93150;-70
2023/01/30 01:20:22;;;;;;;7.37;4.83;;;0.40;99.90;0.10;100370.00;;;;4781571;29;120868;-67
2023/01/30 01:22:52;;;;;;;9.73;5.03;;;0.40;99.90;0.00;100371.00;;;;4780138;29;92905;-68
2023/01/30 01:25:18;;;;;;;4.47;3.60;;;1.10;99.90;0.00;100365.00;;;;4776795;29;93413;-70
2023/01/30 01:27:45;;;;;;;7.47;4.97;;;0.20;99.90;0.00;100359.00;;;;4779402;29;123310;-68
2023/01/30 01:30:11;;;;;;;9.17;5.20;;;0.40;99.90;0.10;100359.00;;;;4780271;29;115649;-67
2023/01/30 01:32:37;;;;;;;7.33;5.00;;;1.00;99.90;0.10;100354.00;;;;4778426;29;102788;-67
2023/01/30 01:35:04;;;;;;;5.07;3.73;;;0.40;99.90;0.10;100354.00;;;;4778671;29;108968;-68
2023/01/30 01:37:29;;;;;;;9.20;5.17;;;0.30;99.90;0.10;100353.00;;;;4778843;29;107902;-69
2023/01/30 01:42:39;;;;;;;5.70;4.07;;;0.40;99.90;0.10;100308.00;;;;4777704;29;93020;-68
2023/01/30 01:45:10;;;;;;;5.57;4.50;;;0.40;99.90;0.10;100306.00;;;;4777576;29;92168;-69
2023/01/30 01:47:58;;;;;;;6.00;3.90;;;0.50;99.90;0.10;100294.00;;;;4782191;29;92984;-69
2023/01/30 01:50:47;;;;;;;6.30;3.90;;;0.50;99.90;0.10;100282.00;;;;4779753;29;114854;-69
2023/01/30 01:53:16;;;;;;;6.93;4.97;;;1.10;99.90;0.10;100261.00;;;;4774867;29;93946;-68
2023/01/30 01:55:45;;;;;;;7.63;3.60;;;-0.30;99.90;0.10;100255.00;;;;4779213;29;93012;-68
2023/01/30 01:58:39;;;;;;;9.17;5.37;;;0.50;99.90;0.10;100267.00;;;;4775931;29;115965;-68
2023/01/30 02:01:05;;;;;;;6.03;4.23;;;0.40;99.90;0.20;100259.00;;;;4776704;29;102793;-68
2023/01/30 02:03:39;;;;;;;8.43;5.13;;;0.50;99.90;0.10;100252.00;;;;4778871;29;93174;-67
2023/01/30 02:06:06;;;;;;;9.53;5.37;;;0.40;99.90;0.20;100234.00;;;;4764299;29;93009;-69
2023/01/30 02:08:37;;;;;;;9.27;5.10;;;0.50;99.90;0.20;100221.00;;;;4778857;29;93052;-67
2023/01/30 02:11:29;;;;;;;5.77;4.23;;;0.50;99.90;0.10;100227.00;;;;4793483;29;93667;-69
2023/01/30 02:13:56;;;;;;;6.67;4.33;;;0.50;99.90;0.10;100217.00;;;;4778653;29;93302;-68
2023/01/30 02:16:22;;;;;;;8.87;4.37;;;0.40;99.90;0.20;100226.00;;;;4780576;29;104577;-67
2023/01/30 02:18:48;;;;;;;7.97;4.60;;;0.40;99.90;0.20;100225.00;;;;4779402;29;123793;-67
2023/01/30 02:21:53;;;;;;;6.90;4.73;;;0.60;99.90;0.20;100214.00;;;;4778112;29;124142;-67
2023/01/30 02:24:51;;;;;;;7.60;4.30;;;0.60;99.90;0.20;100222.00;;;;4751743;29;94650;-68
2023/01/30 02:27:56;;;;;;;6.87;4.17;;;0.60;99.90;0.20;100231.00;;;;4776064;29;93043;-67
2023/01/30 02:31:22;;;;;;;5.97;4.43;;;0.50;99.90;0.20;100240.00;;;;4778898;29;92815;-68
2023/01/30 02:34:47;;;;;;;6.10;4.20;;;0.60;99.90;0.30;100230.00;;;;4781104;29;92901;-69
2023/01/30 02:37:50;;;;;;;6.13;3.80;;;0.60;99.90;0.30;100223.00;;;;4778550;29;92798;-67
2023/01/30 02:40:38;;;;;;;8.70;4.87;;;0.70;99.90;0.40;100217.00;;;;4778821;29;92136;-68
2023/01/30 02:43:27;;;;;;;6.10;4.10;;;0.60;99.90;0.40;100212.00;;;;4778451;29;113179;-68
2023/01/30 02:46:04;;;;;;;3.83;3.53;;;0.80;99.90;0.40;100204.00;;;;4793743;29;113735;-68
2023/01/30 02:48:40;;;;;;;5.40;4.27;;;0.60;99.90;0.40;100199.00;;;;4788174;29;93752;-67
2023/01/30 02:51:22;;;;;;;4.97;4.17;;;0.70;99.90;0.40;100180.00;;;;4780509;29;93083;-68
2023/01/30 02:53:50;;;;;;;11.50;4.47;;;0.70;99.90;0.40;100177.00;;;;4777811;29;93133;-68
2023/01/30 02:56:15;;;;;;;11.30;5.20;;;0.70;99.90;0.40;100179.00;;;;4785668;29;120838;-68
2023/01/30 02:58:47;;;;;;;6.77;4.53;;;0.80;99.90;0.40;100158.00;;;;4777599;29;110592;-67
2023/01/30 03:01:29;;;;;;;8.00;5.50;;;0.70;99.90;0.40;100141.00;;;;4789074;29;94544;-69
2023/01/30 03:04:30;;;;;;;9.03;5.97;;;0.70;99.90;0.40;100143.00;;;;4779173;29;103558;-68
2023/01/30 03:07:27;;;;;;;8.40;5.43;;;0.70;99.90;0.40;100137.00;;;;4778952;29;92938;-68
2023/01/30 03:10:15;;;;;;;5.33;4.17;;;0.70;99.90;0.50;100121.00;;;;4792490;29;93118;-68
2023/01/30 03:13:02;;;;;;;7.00;4.67;;;0.80;99.90;0.50;100133.00;;;;4790180;29;97664;-69
2023/01/30 03:15:41;;;;;;;5.47;3.50;;;0.80;99.90;0.50;100114.00;;;;4777367;29;94452;-70
2023/01/30 03:18:07;;;;;;;9.37;5.80;;;0.90;99.90;0.60;100108.00;;;;4791406;29;116951;-68
2023/01/30 03:20:38;;;;;;;5.60;4.67;;;0.80;99.90;0.60;100102.00;;;;4780769;29;110564;-69
2023/01/30 03:23:03;;;;;;;8.17;5.13;;;0.90;99.90;0.60;100077.00;;;;4790437;29;92691;-68
2023/01/30 03:25:31;;;;;;;10.20;5.50;;;0.90;99.90;0.60;100084.00;;;;4777546;29;103138;-68
2023/01/30 03:27:57;;;;;;;7.00;4.00;;;1.00;99.90;0.70;100049.00;;;;4791034;29;93400;-68
2023/01/30 03:30:25;;;;;;;5.10;4.40;;;1.00;99.90;0.70;100074.00;;;;4775319;29;110714;-70
2023/01/30 03:32:51;;;;;;;6.60;5.00;;;1.10;99.90;0.80;100067.00;;;;4782519;29;92855;-69
2023/01/30 03:35:17;;;;;;;5.00;4.17;;;1.10;99.90;0.80;100055.00;;;;4782012;29;122647;-68
2023/01/30 03:37:44;;;;;;;9.17;5.23;;;1.10;99.90;0.80;100041.00;;;;4782097;29;123939;-68
2023/01/30 03:40:12;;;;;;;7.17;4.37;;;1.10;99.90;0.90;100042.00;;;;4781165;29;109356;-68
2023/01/30 03:42:38;;;;;;;9.80;4.73;;;1.20;99.90;0.90;100041.00;;;;4780313;29;93147;-68
2023/01/30 03:45:04;;;;;;;7.17;4.53;;;1.80;99.90;1.00;100044.00;;;;4764966;29;122439;-69
2023/01/30 03:47:30;;;;;;;7.00;4.33;;;1.20;99.90;1.00;100055.00;;;;4780056;29;114564;-70
2023/01/30 03:49:56;;;;;;;7.57;4.70;;;1.20;99.90;1.10;100041.00;;;;4781453;29;109566;-69
2023/01/30 03:52:21;;;;;;;7.20;5.27;;;1.40;99.90;1.10;100033.00;;;;4778494;29;109181;-70
2023/01/30 03:54:47;;;;;;;6.73;4.77;;;1.40;99.90;1.10;100025.00;;;;4782099;29;122464;-69
2023/01/30 03:57:12;;;;;;;5.97;4.07;;;1.40;99.90;1.10;100017.00;;;;4780860;29;121695;-68
2023/01/30 03:59:38;;;;;;;4.43;3.57;;;1.40;99.90;1.20;99999.00;;;;4780235;29;110322;-68
2023/01/30 04:02:04;;;;;;;7.70;4.67;;;1.50;99.90;1.20;100002.00;;;;4782142;29;110624;-69
2023/01/30 04:04:29;;;;;;;6.17;4.07;;;1.50;99.90;1.20;100003.00;;;;4780229;29;123236;-69
2023/01/30 04:06:55;;;;;;;6.77;5.17;;;1.50;99.90;1.30;100000.00;;;;4782591;29;93911;-69
2023/01/30 04:09:21;;;;;;;5.27;4.23;;;1.50;99.90;1.30;100000.00;;;;4780954;29;109870;-69
2023/01/30 04:11:47;;;;;;;7.03;3.93;;;1.50;99.90;1.30;100013.00;;;;4780942;29;108994;-69
2023/01/30 04:14:13;;;;;;;6.13;4.13;;;1.70;99.90;1.40;99979.00;;;;4778603;29;114208;-69
2023/01/30 04:16:39;;;;;;;3.93;3.53;;;1.70;99.90;1.40;99998.00;;;;4780595;29;122951;-69
2023/01/30 04:19:05;;;;;;;5.07;3.80;;;1.70;99.90;1.50;99992.00;;;;4779530;29;111062;-69
2023/01/30 04:21:30;;;;;;;5.50;3.70;;;1.70;99.90;1.50;99992.00;;;;4781684;29;92089;-70
2023/01/30 04:23:56;;;;;;;5.27;4.20;;;1.70;99.90;1.50;99988.00;;;;4781405;29;123034;-69
2023/01/30 04:26:22;;;;;;;6.07;4.33;;;1.80;99.90;1.50;100004.00;;;;4778399;29;121485;-69
2023/01/30 04:28:47;;;;;;;5.97;4.00;;;2.30;99.90;1.50;99976.00;;;;4777860;29;109956;-68
2023/01/30 04:31:13;;;;;;;8.03;4.03;;;1.80;99.90;1.50;99970.00;;;;4782632;29;109209;-68
2023/01/30 04:33:39;;;;;;;5.67;4.50;;;1.70;99.90;1.60;99967.00;;;;4780463;29;110825;-69
2023/01/30 04:36:07;;;;;;;10.33;4.40;;;1.90;99.90;1.60;99954.00;;;;4781533;29;93785;-69
2023/01/30 04:38:34;;;;;;;4.30;3.90;;;1.80;99.90;1.70;99959.00;;;;4783759;29;92787;-69
2023/01/30 04:41:00;;;;;;;7.57;5.13;;;1.90;99.90;1.70;99926.00;;;;4776609;29;100885;-69
2023/01/30 04:43:27;;;;;;;3.60;3.13;;;1.90;99.90;1.70;99947.00;;;;4777411;29;118820;-69
2023/01/30 04:45:54;;;;;;;7.13;4.27;;;1.90;99.90;1.70;99950.00;;;;4779103;29;92097;-70
2023/01/30 04:48:22;;;;;;;4.17;3.77;;;1.90;99.90;1.70;99940.00;;;;4779355;29;95915;-70
2023/01/30 04:50:51;;;;;;;5.57;4.23;;;1.90;99.90;1.70;99932.00;;;;4780650;29;92954;-70
2023/01/30 04:53:17;;;;;;;6.10;4.57;;;2.00;99.90;1.70;99922.00;;;;4781035;29;94334;-68
2023/01/30 04:55:43;;;;;;;6.10;4.90;;;2.50;99.90;1.60;99925.00;;;;4781183;29;94050;-70
2023/01/30 04:58:09;;;;;;;6.53;4.27;;;1.90;99.90;1.50;99908.00;;;;4779350;29;110423;-70
2023/01/30 05:00:35;;;;;;;10.00;5.37;;;1.90;99.90;1.50;99914.00;;;;4779743;29;108796;-70
2023/01/30 05:03:00;;;;;;;8.63;4.57;;;1.80;99.90;1.40;99901.00;;;;4779906;29;122018;-70
2023/01/30 05:05:27;;;;;;;8.30;3.93;;;1.80;99.90;1.40;99912.00;;;;4780545;29;92962;-71
2023/01/30 05:07:53;;;;;;;8.30;4.93;;;1.70;99.90;1.30;99893.00;;;;4779784;29;93366;-71
2023/01/30 05:10:19;;;;;;;8.53;5.40;;;1.60;99.90;1.30;99893.00;;;;4780297;29;92205;-70
2023/01/30 05:12:45;;;;;;;7.10;4.60;;;1.60;99.90;1.20;99899.00;;;;4776443;29;93594;-72
2023/01/30 05:15:12;;;;;;;7.27;5.53;;;1.50;99.90;1.20;99887.00;;;;4777032;29;122790;-70
2023/01/30 05:17:38;;;;;;;6.40;4.73;;;1.50;99.90;1.10;99875.00;;;;4778328;29;101632;-70
2023/01/30 05:20:07;;;;;;;8.07;5.67;;;1.30;99.90;1.10;99882.00;;;;4774959;29;109814;-71
2023/01/30 05:22:33;;;;;;;11.07;5.93;;;1.50;99.90;1.10;99869.00;;;;4777526;29;114054;-74
2023/01/30 05:24:58;;;;;;;8.47;5.57;;;1.50;99.90;1.00;99868.00;;;;4780561;29;120618;-77
2023/01/30 05:27:24;;;;;;;10.80;5.70;;;1.60;99.90;1.00;99856.00;;;;4780058;29;110161;-78
2023/01/30 05:29:50;;;;;;;8.27;5.30;;;1.30;99.90;1.00;99851.00;;;;4777574;29;94999;-75
2023/01/30 05:32:18;;;;;;;11.17;5.40;;;1.30;99.90;1.00;99852.00;;;;4761872;29;122544;-74
2023/01/30 05:34:44;;;;;;;12.47;6.17;;;1.40;99.90;1.00;99865.00;;;;4777577;29;115114;-78
2023/01/30 05:37:11;;;;;;;7.37;5.17;;;1.40;99.90;1.10;99842.00;;;;4777224;29;103386;-75
2023/01/30 05:39:37;;;;;;;7.17;4.70;;;1.40;99.90;1.10;99843.00;;;;4778196;29;94543;-78
2023/01/30 05:42:03;;;;;;;9.50;5.67;;;1.30;99.90;1.20;99836.00;;;;4777593;29;117836;-76
2023/01/30 05:44:29;;;;;;;14.00;5.53;;;1.50;99.90;1.20;99826.00;;;;4773852;29;115229;-73
2023/01/30 05:46:58;;;;;;;7.80;5.90;;;1.50;99.90;1.30;99842.00;;;;4535975;29;10000879;-73
2023/01/30 05:49:24;;;;;;;7.53;4.83;;;1.40;99.90;1.30;99825.00;;;;4275869;29;10000284;-74
2023/01/30 05:51:49;;;;;;;7.37;5.50;;;1.50;99.90;1.30;99808.00;;;;4774544;29;110457;-75
2023/01/30 05:54:15;;;;;;;9.93;6.80;;;1.60;99.90;1.40;99800.00;;;;4776906;29;92835;-77
2023/01/30 05:56:41;;;;;;;8.50;5.40;;;1.70;99.90;1.40;99823.00;;;;4776280;29;122669;-76
2023/01/30 05:59:10;;;;;;;6.40;5.67;;;1.70;99.90;1.50;99819.00;;;;4771311;29;122690;-76
2023/01/30 06:01:36;;;;;;;7.67;5.73;;;1.70;99.90;1.50;99790.00;;;;4775492;29;93162;-72
2023/01/30 06:04:01;;;;;;;7.03;4.23;;;1.80;99.90;1.60;99804.00;;;;4757959;29;108881;-73
2023/01/30 06:06:27;;;;;;;10.90;5.57;;;1.70;99.90;1.60;99812.00;;;;4773568;29;95058;-73
2023/01/30 06:08:56;;;;;;;6.47;4.30;;;1.90;99.90;1.60;99809.00;;;;4752420;29;122770;-73
2023/01/30 06:11:23;;;;;;;6.50;4.80;;;1.90;99.90;1.70;99800.00;;;;4772973;29;110496;-73
2023/01/30 06:13:49;;;;;;;8.53;5.70;;;2.80;99.90;1.70;99817.00;;;;4759523;29;92959;-74
2023/01/30 06:16:16;;;;;;;6.23;5.13;;;1.90;99.90;1.80;99827.00;;;;4775391;29;121745;-72
2023/01/30 06:18:45;;;;;;;6.87;4.57;;;2.80;99.90;1.80;99828.00;;;;4777285;29;93778;-73
2023/01/30 06:21:12;;;;;;;8.10;4.57;;;2.00;99.90;1.80;99823.00;;;;4780179;29;92944;-74
2023/01/30 06:23:37;;;;;;;11.43;4.80;;;2.20;99.90;1.80;99826.00;;;;4780890;29;92287;-75
2023/01/30 06:26:03;;;;;;;6.23;4.57;;;2.20;99.90;1.80;99835.00;;;;4777183;29;94193;-72
2023/01/30 06:28:29;;;;;;;8.50;5.00;;;2.20;99.90;1.90;99840.00;;;;4776645;29;108689;-74
2023/01/30 06:30:54;;;;;;;8.03;5.03;;;2.10;99.90;1.80;99828.00;;;;4776264;29;109155;-71
2023/01/30 06:33:20;;;;;;;5.57;4.00;;;2.20;99.90;1.80;99831.00;;;;4775133;29;108817;-73
2023/01/30 06:35:49;;;;;;;6.03;4.07;;;2.20;99.90;1.70;99827.00;;;;4776606;29;116156;-71
2023/01/30 06:38:16;;;;;;;11.33;4.43;;;1.90;99.90;1.70;99822.00;;;;4777027;29;94819;-77
2023/01/30 06:40:45;;;;;;;5.60;4.30;;;1.90;99.90;1.60;99824.00;;;;4777024;29;92761;-80
2023/01/30 06:43:11;;;;;;;11.83;4.90;;;3.40;99.90;1.50;99810.00;;;;4754313;29;93041;-79
2023/01/30 06:45:36;;;;;;;5.07;4.57;;;1.70;99.90;1.40;99810.00;;;;4778892;29;93739;-79
2023/01/30 06:48:03;;;;;;;8.20;4.47;;;1.70;99.90;1.40;99826.00;;;;4790463;29;121940;-74
2023/01/30 06:50:29;;;;;;;8.00;4.80;;;1.70;99.90;1.30;99821.00;;;;4777357;29;92955;-78
2023/01/30 06:52:55;;;;;;;8.80;6.70;;;1.60;99.90;1.20;99826.00;;;;4760133;29;93114;-74
2023/01/30 06:55:24;;;;;;;5.87;4.27;;;1.90;99.90;1.10;99820.00;;;;4776488;29;124450;-75
2023/01/30 06:58:06;;;;;;;7.00;4.83;;;1.50;99.90;1.00;99818.00;;;;4790590;29;93679;-74
2023/01/30 07:00:33;;;;;;;11.10;5.93;;;1.40;99.90;1.00;99819.00;;;;4777308;29;93083;-77
2023/01/30 07:02:58;;;;;;;6.67;5.37;;;1.40;99.90;1.00;99798.00;;;;4777613;29;108903;-72
2023/01/30 07:05:25;;;;;;;8.37;4.80;;;1.30;99.90;1.00;99809.00;;;;4775531;29;122034;-71
2023/01/30 07:07:50;;;;;;;9.30;5.27;;;1.30;99.90;0.90;99807.00;;;;4776485;29;93211;-72
2023/01/30 07:10:16;;;;;;;7.00;4.77;;;1.30;99.90;0.90;99801.00;;;;4780372;29;110769;-75
2023/01/30 07:12:44;;;;;;;8.00;5.83;;;1.20;99.90;0.90;99800.00;;;;4781575;29;108425;-72
2023/01/30 07:15:10;;;;;;;7.97;5.70;;;1.20;99.90;0.90;99794.00;;;;4792027;29;95493;-75
2023/01/30 07:17:35;;;;;;;7.47;5.60;;;1.20;99.90;0.90;99792.00;;;;4781032;29;95071;-74
2023/01/30 07:20:01;;;;;;;7.83;5.27;;;1.20;99.90;1.00;99803.00;;;;4779467;29;110620;-74
2023/01/30 07:22:27;;;;;;;11.87;6.63;;;1.20;99.90;1.00;99797.00;;;;4780146;29;108483;-72
2023/01/30 07:24:52;;;;;;;6.23;5.10;;;1.20;99.90;1.00;99788.00;;;;4780542;29;105853;-73
2023/01/30 07:27:18;;;;;;;7.63;5.13;;;1.30;99.90;1.00;99790.00;;;;4777134;29;93194;-72
2023/01/30 07:29:44;;;;;;;9.27;5.53;;;1.20;99.90;1.00;99789.00;;;;4796175;29;109124;-77
2023/01/30 07:32:17;;;;;;;6.70;5.50;;;1.30;99.90;1.00;99786.00;;;;4783065;29;93085;-74
2023/01/30 07:34:43;;;;;;;7.67;5.30;;;1.30;99.90;1.10;99791.00;;;;4780476;29;93014;-74
2023/01/30 07:37:08;;;;;;;9.23;6.03;;;1.30;99.90;1.10;99776.00;;;;4775423;29;121668;-76
2023/01/30 07:39:34;;;;;;;8.37;6.00;;;1.40;99.90;1.20;99784.00;;;;4780300;29;109595;-74
2023/01/30 07:42:00;;;;;;;7.73;5.40;;;1.40;99.90;1.10;99780.00;;;;4781374;29;93603;-73
2023/01/30 07:44:26;;;;;;;8.90;5.60;;;1.40;99.90;1.10;99780.00;;;;4778184;29;103634;-72
2023/01/30 07:46:52;;;;;;;8.70;5.90;;;2.50;99.90;1.10;99777.00;;;;4796146;29;96579;-73
2023/01/30 07:49:18;;;;;;;6.17;5.27;;;1.40;99.90;1.10;99791.00;;;;4778603;29;109951;-74
2023/01/30 07:51:44;;;;;;;8.27;5.47;;;1.40;99.90;1.10;99781.00;;;;4781020;29;108391;-70
2023/01/30 07:54:10;;;;;;;9.97;6.60;;;1.50;99.90;1.10;99785.00;;;;4782496;29;96303;-72
2023/01/30 07:56:36;;;;;;;6.07;5.03;;;1.40;99.90;1.10;99783.00;;;;4779797;29;99934;-73
2023/01/30 07:59:02;;;;;;;7.10;5.17;;;1.40;99.90;1.10;99781.00;;;;4777282;29;105655;-70
2023/01/30 08:01:28;;;;;;;7.50;5.00;;;1.90;99.90;1.10;99790.00;;;;4782881;29;92101;-72
2023/01/30 08:03:53;;;;;;;9.60;5.27;;;1.50;99.90;1.20;99773.00;;;;4778858;29;122629;-72
2023/01/30 08:06:19;;;;;;;9.40;5.57;;;1.50;99.90;1.20;99777.00;;;;4781735;29;123394;-71
2023/01/30 08:08:45;;;;;;;6.27;4.47;;;1.50;99.90;1.30;99793.00;;;;4786741;29;110292;-73
2023/01/30 08:11:10;;;;;;;9.73;5.17;;;1.60;99.90;1.30;99775.00;;;;4778475;29;92859;-72
2023/01/30 08:13:36;;;;;;;6.67;5.17;;;1.60;99.90;1.30;99778.00;;;;4778878;29;116678;-72
2023/01/30 08:16:04;;;;;;;9.97;5.13;;;1.60;99.90;1.30;99781.00;;;;4779539;29;122015;-72
2023/01/30 08:18:31;;;;;;;6.97;5.13;;;1.60;99.90;1.30;99785.00;;;;4777693;29;93071;-72
2023/01/30 08:20:59;;;;;;;5.37;4.57;;;1.50;99.90;1.30;99778.00;;;;4779149;29;92989;-70
2023/01/30 08:23:25;;;;;;;9.93;5.47;;;1.60;99.90;1.30;99792.00;;;;4780611;29;96595;-70
2023/01/30 08:25:59;;;;;;;8.83;4.87;;;1.60;99.90;1.40;99783.00;;;;4780031;29;93691;-70
2023/01/30 08:28:27;;;;;;;5.40;4.73;;;1.60;99.90;1.40;99780.00;;;;4791754;29;92914;-70
2023/01/30 08:30:53;;;;;;;6.57;5.33;;;1.70;99.90;1.40;99759.00;;;;4793447;29;92885;-68
2023/01/30 08:33:20;;;;;;;7.90;4.93;;;1.60;99.90;1.50;99766.00;;;;4780703;29;107086;-67
2023/01/30 08:35:46;;;;;;;10.60;4.73;;;1.70;99.90;1.50;99768.00;;;;4780662;29;94819;-69
2023/01/30 08:38:13;;;;;;;9.83;5.60;;;1.80;99.90;1.50;99756.00;;;;4779162;29;108524;-70
2023/01/30 08:40:39;;;;;;;6.67;4.67;;;1.80;99.90;1.60;99757.00;;;;4781656;29;98352;-69
2023/01/30 08:43:05;;;;;;;4.93;4.07;;;1.80;99.90;1.60;99758.00;;;;4781444;29;93443;-69
2023/01/30 08:45:31;;;;;;;7.47;4.53;;;1.80;99.90;1.70;99752.00;;;;4764314;29;103744;-67
2023/01/30 08:47:59;;;;;;;9.53;4.53;;;1.90;99.90;1.80;99749.00;;;;4780665;29;93087;-68
2023/01/30 08:50:24;;;;;;;5.33;4.23;;;2.00;99.90;1.80;99754.00;;;;4793733;29;92357;-69
2023/01/30 08:52:50;;;;;;;6.50;4.53;;;2.10;99.90;1.90;99769.00;;;;4776215;29;93698;-69
2023/01/30 08:55:17;;;;;;;5.67;3.97;;;2.20;99.90;2.00;99770.00;;;;4778695;29;119583;-68
2023/01/30 08:57:43;;;;;;;6.03;4.50;;;2.20;99.90;2.00;99774.00;;;;4780335;29;93746;-69
2023/01/30 09:00:10;;;;;;;7.43;4.43;;;2.20;99.90;2.10;99758.00;;;;4781030;29;92924;-69
2023/01/30 09:02:36;;;;;;;5.17;3.67;;;2.30;99.90;2.10;99751.00;;;;4779669;29;94623;-68
2023/01/30 09:05:02;;;;;;;5.60;3.73;;;2.40;99.90;2.10;99750.00;;;;4778920;29;92967;-67
2023/01/30 09:07:28;;;;;;;5.17;3.57;;;2.40;99.90;2.20;99750.00;;;;4778467;29;92846;-69
2023/01/30 09:09:54;;;;;;;9.13;5.50;;;2.40;99.90;2.20;99729.00;;;;4776983;29;92954;-70
2023/01/30 09:12:20;;;;;;;5.30;3.93;;;2.50;99.90;2.30;99742.00;;;;4781174;29;92877;-70
2023/01/30 09:14:45;;;;;;;6.20;3.03;;;2.50;99.90;2.30;99734.00;;;;4781956;29;113915;-68
2023/01/30 09:17:12;;;;;;;8.90;4.43;;;2.60;99.90;2.30;99749.00;;;;4780581;29;109782;-69
2023/01/30 09:19:38;;;;;;;5.87;4.07;;;2.60;99.90;2.40;99757.00;;;;4781058;29;92730;-68
2023/01/30 09:22:06;;;;;;;5.03;3.40;;;2.60;99.90;2.50;99764.00;;;;4779464;29;94472;-69
2023/01/30 09:24:32;;;;;;;4.40;2.90;;;2.70;99.90;2.50;99733.00;;;;4779433;29;94836;-68
2023/01/30 09:26:58;;;;;;;5.00;3.73;;;2.80;99.90;2.50;99746.00;;;;4776302;29;92835;-70
2023/01/30 09:29:25;;;;;;;2.90;2.53;;;2.80;99.90;2.60;99750.00;;;;4780479;29;93102;-68
2023/01/30 09:31:51;;;;;;;4.30;3.53;;;2.80;99.90;2.70;99750.00;;;;4778768;29;93035;-69
2023/01/30 09:34:16;;;;;;;7.13;3.63;;;3.00;99.90;2.70;99746.00;;;;4774588;29;123554;-68
2023/01/30 09:36:42;;;;;;;6.43;4.10;;;2.90;99.90;2.80;99750.00;;;;4781116;29;110577;-68
2023/01/30 09:39:08;;;;;;;4.87;3.67;;;3.00;99.90;2.80;99755.00;;;;4779902;29;92229;-69
2023/01/30 09:42:00;;;;;;;4.87;3.27;;;3.30;99.90;2.80;99745.00;;;;4780578;29;122924;-68
2023/01/30 09:45:25;;;;;;;3.03;2.33;;;3.00;99.90;2.80;99743.00;;;;4778853;29;92974;-69
2023/01/30 09:48:29;;;;;;;3.90;2.60;;;3.00;99.90;2.80;99748.00;;;;4778676;29;93925;-69
2023/01/30 09:51:06;;;;;;;5.20;2.80;;;3.20;99.90;2.90;99745.00;;;;4778396;29;92989;-68
2023/01/30 09:54:01;;;;;;;3.83;2.90;;;2.70;99.90;2.90;99741.00;;;;4776755;29;98980;-70
2023/01/30 09:56:27;;;;;;;5.40;2.73;;;3.20;99.90;2.90;99748.00;;;;4779863;29;93257;-70
2023/01/30 09:58:57;;;;;;;3.17;2.17;;;3.20;99.90;3.00;99738.00;;;;4779321;29;108711;-68
2023/01/30 10:01:53;;;;;;;3.13;2.27;;;3.30;99.90;3.10;99719.00;;;;4780273;29;104044;-68
2023/01/30 10:04:33;;;;;;;2.23;1.73;;;3.30;99.90;3.30;99722.00;;;;4777368;29;95527;-69
2023/01/30 10:07:24;;;;;;;4.60;2.47;;;3.40;99.90;3.70;99713.00;;;;4760457;29;95138;-69
2023/01/30 10:10:01;;;;;;;6.77;2.83;;;3.80;99.90;3.80;99706.00;;;;4790792;29;103550;-68
2023/01/30 10:13:09;;;;;;;3.70;2.43;;;3.90;99.90;4.10;99701.00;;;;4775231;29;99911;-68
2023/01/30 10:15:48;;;;;;;3.03;2.20;;;4.20;99.90;4.20;99712.00;;;;4776726;29;96379;-67
2023/01/30 10:18:49;;;;;;;3.57;2.17;;;4.40;99.90;4.20;99697.00;;;;4777860;29;92882;-69
2023/01/30 10:21:51;;;;;;;2.87;1.93;;;4.50;99.90;4.20;99703.00;;;;4781059;29;93397;-69
2023/01/30 10:24:48;;;;;;;2.53;1.87;;;4.50;99.90;4.20;99699.00;;;;4788433;29;97149;-68
2023/01/30 10:27:17;;;;;;;4.40;2.87;;;4.50;99.90;4.10;99700.00;;;;4775951;29;92965;-67
2023/01/30 10:29:51;;;;;;;4.97;2.43;;;5.30;99.90;4.10;99707.00;;;;4780313;29;96251;-66
2023/01/30 10:32:30;;;;;;;3.67;2.13;;;4.30;99.90;4.00;99707.00;;;;4780741;29;92790;-69
2023/01/30 10:35:05;;;;;;;2.93;2.00;;;4.30;99.90;4.00;99718.00;;;;4779146;29;92506;-68
2023/01/30 10:37:58;;;;;;;3.27;2.03;;;4.10;99.90;3.90;99737.00;;;;4776299;29;93426;-67
2023/01/30 10:40:45;;;;;;;3.23;2.00;;;4.20;99.90;3.90;99729.00;;;;4776442;29;112125;-68
2023/01/30 10:43:33;;;;;;;2.50;2.13;;;4.90;99.90;3.90;99716.00;;;;4791317;29;102613;-67
2023/01/30 10:46:06;;;;;;;5.33;2.63;;;4.10;99.90;3.90;99715.00;;;;4779583;29;92961;-68
2023/01/30 10:49:04;;;;;;;3.97;1.93;;;4.10;99.90;3.90;99709.00;;;;4783289;29;106422;-65
2023/01/30 10:52:02;;;;;;;9.40;3.93;;;4.20;99.90;4.00;99708.00;;;;4782527;29;107328;-65
2023/01/30 10:54:46;;;;;;;1.50;1.37;;;4.20;99.90;4.00;99689.00;;;;4783548;29;93039;-67
2023/01/30 10:57:53;;;;;;;2.97;1.43;;;4.20;99.90;4.10;99699.00;;;;4793586;29;100613;-66
2023/01/30 11:00:29;;;;;;;1.93;1.60;;;4.30;99.90;4.20;99699.00;;;;4774096;29;92795;-67
2023/01/30 11:03:10;;;;;;;3.63;1.50;;;5.20;99.90;4.30;99683.00;;;;4797539;29;93232;-66
2023/01/30 11:05:48;;;;;;;4.07;2.07;;;4.50;99.90;4.40;99685.00;;;;4799217;29;94423;-68
2023/01/30 11:08:30;;;;;;;2.13;1.17;;;4.60;99.90;4.50;99697.00;;;;4779005;29;102721;-66
2023/01/30 11:10:57;;;;;;;2.53;1.53;;;4.60;99.90;4.60;99690.00;;;;4781264;29;94468;-65
2023/01/30 11:13:31;;;;;;;2.33;1.47;;;4.70;99.90;4.70;99697.00;;;;4782285;29;93848;-66
2023/01/30 11:16:05;;;;;;;4.00;1.80;;;4.90;99.90;4.80;99694.00;;;;4780197;29;92849;-66
2023/01/30 11:18:32;;;;;;;3.17;1.80;;;4.90;99.90;4.80;99692.00;;;;4782737;29;92934;-66
2023/01/30 11:21:06;;;;;;;2.23;1.50;;;5.00;99.90;4.80;99688.00;;;;4783209;29;94465;-67
2023/01/30 11:23:38;;;;;;;1.67;1.27;;;5.10;99.90;4.80;99678.00;;;;4783329;29;93658;-67
2023/01/30 11:26:04;;;;;;;2.43;1.87;;;4.90;99.90;4.80;99663.00;;;;4782694;29;93815;-67
2023/01/30 11:28:40;;;;;;;2.80;1.77;;;5.70;99.90;4.80;99675.00;;;;4783622;29;92242;-67